createdAt,value
2024-05-09T00:00:10.506Z,66.99
2024-05-09T00:01:08.145Z,67.11
2024-05-09T00:02:07.111Z,67.66
2024-05-09T00:03:07.358Z,68.08
2024-05-09T00:04:07.112Z,70.06
2024-05-09T00:05:07.273Z,68.64
2024-05-09T00:06:07.215Z,70.75
2024-05-09T00:07:07.094Z,67.23
2024-05-09T00:08:07.139Z,70.63
2024-05-09T00:09:07.130Z,69.53
2024-05-09T00:10:14.526Z,69.06
2024-05-09T00:11:08.291Z,69.06
2024-05-09T00:12:07.265Z,69.43
2024-05-09T00:13:07.645Z,69.54
2024-05-09T00:14:07.224Z,68.46
2024-05-09T00:15:07.208Z,69.32
2024-05-09T00:16:07.231Z,69.66
2024-05-09T00:17:07.294Z,68.51
2024-05-09T00:18:08.041Z,65.69
2024-05-09T00:19:07.344Z,66.86
2024-05-09T00:20:14.324Z,63.07
2024-05-09T00:21:08.539Z,63.27
2024-05-09T00:22:07.327Z,63.52
2024-05-09T00:23:07.857Z,64.70
2024-05-09T00:24:07.319Z,63.66
2024-05-09T00:25:07.325Z,66.60
2024-05-09T00:26:07.462Z,64.95
2024-05-09T00:27:08.469Z,64.79
2024-05-09T00:28:07.357Z,61.55
2024-05-09T00:29:07.391Z,64.87
2024-05-09T00:30:07.542Z,63.40
2024-05-09T00:31:07.488Z,61.48
2024-05-09T00:32:07.593Z,63.44
2024-05-09T00:33:09.206Z,62.94
2024-05-09T00:34:07.700Z,64.11
2024-05-09T00:35:07.702Z,65.51
2024-05-09T00:36:07.643Z,65.42
2024-05-09T00:37:07.633Z,61.18
2024-05-09T00:38:07.736Z,64.01
2024-05-09T00:39:07.633Z,65.13
2024-05-09T00:40:14.902Z,65.16
2024-05-09T00:41:08.676Z,65.32
2024-05-09T00:42:07.656Z,65.52
2024-05-09T00:43:07.649Z,65.39
2024-05-09T00:44:07.701Z,64.08
2024-05-09T00:45:07.667Z,65.68
2024-05-09T00:46:07.671Z,66.81
2024-05-09T00:47:07.942Z,65.71
2024-05-09T00:48:09.096Z,66.13
2024-05-09T00:49:07.710Z,66.16
2024-05-09T00:50:12.718Z,65.64
2024-05-09T00:51:08.700Z,65.81
2024-05-09T00:52:07.679Z,65.97
2024-05-09T00:53:07.751Z,64.11
2024-05-09T00:54:07.674Z,64.54
2024-05-09T00:55:07.671Z,64.20
2024-05-09T00:56:07.704Z,63.22
2024-05-09T00:57:07.682Z,61.83
2024-05-09T00:58:07.711Z,62.53
2024-05-09T00:59:07.738Z,60.94
2024-05-09T01:00:15.044Z,60.92
2024-05-09T01:01:08.774Z,61.05
2024-05-09T01:02:07.855Z,61.44
2024-05-09T01:03:08.467Z,61.56
2024-05-09T01:04:07.896Z,62.12
2024-05-09T01:05:07.839Z,62.82
2024-05-09T01:06:07.802Z,62.67
2024-05-09T01:07:07.783Z,61.74
2024-05-09T01:08:08.036Z,61.68
2024-05-09T01:09:07.823Z,61.79
2024-05-09T01:10:14.085Z,60.73
2024-05-09T01:11:08.987Z,60.85
2024-05-09T01:12:07.986Z,61.32
2024-05-09T01:13:07.896Z,61.55
2024-05-09T01:14:07.922Z,62.41
2024-05-09T01:15:07.885Z,61.22
2024-05-09T01:16:07.893Z,61.63
2024-05-09T01:17:07.968Z,57.26
2024-05-09T01:18:08.124Z,62.21
2024-05-09T01:19:08.112Z,61.25
2024-05-09T01:20:10.901Z,59.35
2024-05-09T01:21:09.026Z,59.45
2024-05-09T01:22:08.015Z,59.95
2024-05-09T01:23:08.097Z,60.04
2024-05-09T01:24:08.008Z,61.28
2024-05-09T01:25:08.013Z,61.35
2024-05-09T01:26:08.068Z,59.59
2024-05-09T01:27:08.021Z,55.80
2024-05-09T01:28:08.020Z,60.80
2024-05-09T01:29:08.115Z,59.04
2024-05-09T01:30:11.966Z,59.03
2024-05-09T01:31:09.144Z,59.06
2024-05-09T01:32:08.259Z,59.47
2024-05-09T01:33:09.995Z,55.92
2024-05-09T01:34:08.150Z,59.11
2024-05-09T01:35:08.152Z,58.76
2024-05-09T01:36:08.155Z,55.44
2024-05-09T01:37:08.166Z,55.77
2024-05-09T01:38:08.228Z,56.32
2024-05-09T01:39:08.169Z,55.40
2024-05-09T01:40:12.257Z,52.56
2024-05-09T01:41:09.203Z,52.78
2024-05-09T01:42:08.178Z,53.46
2024-05-09T01:43:08.938Z,54.20
2024-05-09T01:44:08.215Z,54.43
2024-05-09T01:45:08.169Z,54.80
2024-05-09T01:46:08.164Z,56.84
2024-05-09T01:47:08.346Z,56.18
2024-05-09T01:48:08.447Z,57.26
2024-05-09T01:49:08.392Z,56.51
2024-05-09T01:50:10.785Z,58.17
2024-05-09T01:51:08.471Z,54.91
2024-05-09T01:52:08.320Z,58.75
2024-05-09T01:53:08.418Z,57.75
2024-05-09T01:54:08.305Z,57.06
2024-05-09T01:55:08.288Z,57.62
2024-05-09T01:56:08.360Z,55.68
2024-05-09T01:57:08.309Z,54.41
2024-05-09T01:58:08.311Z,56.24
2024-05-09T01:59:08.363Z,55.94
2024-05-09T02:00:10.248Z,56.35
2024-05-09T02:01:08.347Z,56.71
2024-05-09T02:02:08.505Z,56.47
2024-05-09T02:03:08.601Z,53.53
2024-05-09T02:04:08.563Z,53.44
2024-05-09T02:05:08.632Z,53.52
2024-05-09T02:06:08.694Z,50.00
2024-05-09T02:07:08.531Z,53.07
2024-05-09T02:08:08.653Z,52.45
2024-05-09T02:09:08.680Z,54.95
2024-05-09T02:10:16.159Z,52.57
2024-05-09T02:11:09.856Z,52.74
2024-05-09T02:12:08.923Z,52.88
2024-05-09T02:13:08.777Z,53.11
2024-05-09T02:14:08.797Z,53.38
2024-05-09T02:15:08.758Z,53.91
2024-05-09T02:16:08.770Z,54.98
2024-05-09T02:17:08.886Z,55.17
2024-05-09T02:18:09.227Z,51.66
2024-05-09T02:19:08.867Z,55.17
2024-05-09T02:20:13.228Z,54.98
2024-05-09T02:21:09.913Z,55.09
2024-05-09T02:22:08.887Z,55.56
2024-05-09T02:23:09.156Z,55.79
2024-05-09T02:24:08.888Z,56.17
2024-05-09T02:25:08.884Z,55.24
2024-05-09T02:26:08.925Z,56.10
2024-05-09T02:27:08.911Z,54.44
2024-05-09T02:28:08.889Z,59.15
2024-05-09T02:29:08.915Z,54.27
2024-05-09T02:30:18.509Z,56.81
2024-05-09T02:31:09.979Z,56.94
2024-05-09T02:32:09.097Z,56.93
2024-05-09T02:33:10.075Z,57.06
2024-05-09T02:34:09.119Z,58.01
2024-05-09T02:35:09.008Z,58.84
2024-05-09T02:36:09.024Z,57.70
2024-05-09T02:37:09.434Z,57.58
2024-05-09T02:38:09.172Z,55.62
2024-05-09T02:39:09.000Z,52.59
2024-05-09T02:40:14.279Z,55.71
2024-05-09T02:41:10.076Z,55.90
2024-05-09T02:42:09.008Z,55.79
2024-05-09T02:43:10.439Z,56.29
2024-05-09T02:44:09.036Z,54.95
2024-05-09T02:45:09.033Z,55.88
2024-05-09T02:46:09.084Z,53.90
2024-05-09T02:47:09.289Z,53.85
2024-05-09T02:48:09.309Z,52.23
2024-05-09T02:49:09.310Z,52.07
2024-05-09T02:50:13.264Z,52.34
2024-05-09T02:51:10.527Z,52.43
2024-05-09T02:52:09.337Z,52.75
2024-05-09T02:53:10.029Z,49.49
2024-05-09T02:54:09.341Z,53.08
2024-05-09T02:55:09.346Z,54.10
2024-05-09T02:56:09.415Z,54.41
2024-05-09T02:57:09.355Z,53.12
2024-05-09T02:58:09.504Z,56.11
2024-05-09T02:59:09.421Z,54.38
2024-05-09T03:00:15.232Z,55.10
2024-05-09T03:01:10.490Z,55.20
2024-05-09T03:02:09.573Z,55.37
2024-05-09T03:03:11.281Z,55.74
2024-05-09T03:04:09.540Z,55.20
2024-05-09T03:05:09.547Z,55.36
2024-05-09T03:06:09.506Z,55.76
2024-05-09T03:07:09.483Z,55.10
2024-05-09T03:08:09.727Z,53.81
2024-05-09T03:09:09.480Z,53.03
2024-05-09T03:10:18.226Z,56.16
2024-05-09T03:11:10.615Z,56.30
2024-05-09T03:12:09.574Z,56.40
2024-05-09T03:13:09.473Z,56.29
2024-05-09T03:14:09.521Z,56.10
2024-05-09T03:15:09.469Z,56.82
2024-05-09T03:16:09.482Z,55.63
2024-05-09T03:17:09.545Z,55.97
2024-05-09T03:18:09.879Z,54.37
2024-05-09T03:19:09.623Z,54.61
2024-05-09T03:20:16.978Z,56.05
2024-05-09T03:21:10.704Z,56.10
2024-05-09T03:22:09.582Z,54.78
2024-05-09T03:23:10.380Z,54.26
2024-05-09T03:24:09.593Z,54.41
2024-05-09T03:25:09.624Z,53.52
2024-05-09T03:26:09.666Z,53.90
2024-05-09T03:27:09.599Z,54.55
2024-05-09T03:28:09.592Z,55.23
2024-05-09T03:29:09.609Z,56.24
2024-05-09T03:30:10.031Z,54.35
2024-05-09T03:31:09.705Z,54.47
2024-05-09T03:32:09.817Z,54.40
2024-05-09T03:33:10.068Z,52.56
2024-05-09T03:34:09.936Z,55.45
2024-05-09T03:35:09.936Z,55.55
2024-05-09T03:36:11.384Z,55.35
2024-05-09T03:37:10.044Z,55.86
2024-05-09T03:38:10.187Z,54.61
2024-05-09T03:39:10.162Z,56.06
2024-05-09T03:40:17.537Z,56.06
2024-05-09T03:41:11.383Z,56.17
2024-05-09T03:42:10.219Z,56.32
2024-05-09T03:43:10.218Z,55.73
2024-05-09T03:44:10.257Z,57.57
2024-05-09T03:45:10.225Z,56.89
2024-05-09T03:46:10.221Z,53.73
2024-05-09T03:47:10.284Z,57.88
2024-05-09T03:48:10.568Z,57.03
2024-05-09T03:49:10.304Z,59.03
2024-05-09T03:50:18.121Z,56.19
2024-05-09T03:51:11.373Z,56.38
2024-05-09T03:52:10.331Z,56.80
2024-05-09T03:53:10.473Z,57.46
2024-05-09T03:54:10.328Z,58.08
2024-05-09T03:55:10.340Z,58.77
2024-05-09T03:56:10.347Z,59.67
2024-05-09T03:57:10.325Z,58.85
2024-05-09T03:58:10.328Z,58.58
2024-05-09T03:59:10.424Z,57.85
2024-05-09T04:00:17.657Z,59.06
2024-05-09T04:01:11.445Z,59.18
2024-05-09T04:02:10.498Z,59.17
2024-05-09T04:03:12.274Z,59.25
2024-05-09T04:04:10.450Z,59.44
2024-05-09T04:05:10.453Z,59.22
2024-05-09T04:06:10.442Z,59.38
2024-05-09T04:07:10.444Z,58.27
2024-05-09T04:08:11.189Z,59.09
2024-05-09T04:09:10.442Z,58.45
2024-05-09T04:10:20.578Z,60.24
2024-05-09T04:11:11.581Z,60.34
2024-05-09T04:12:10.597Z,60.57
2024-05-09T04:13:10.457Z,60.56
2024-05-09T04:14:10.498Z,59.94
2024-05-09T04:15:13.227Z,59.40
2024-05-09T04:16:10.457Z,58.43
2024-05-09T04:17:17.706Z,50.00
2024-05-09T04:18:17.691Z,50.00
2024-05-09T04:19:17.882Z,50.00
2024-05-09T04:20:28.735Z,50.00
2024-05-09T04:21:18.632Z,50.00
2024-05-09T04:22:17.681Z,50.00
2024-05-09T04:23:17.708Z,50.00
2024-05-09T04:24:17.657Z,50.00
2024-05-09T04:25:17.655Z,50.00
2024-05-09T04:26:17.680Z,53.19
2024-05-09T04:27:17.642Z,52.29
2024-05-09T04:28:17.642Z,47.94
2024-05-09T04:29:17.703Z,55.15
2024-05-09T04:30:25.769Z,55.57
2024-05-09T04:31:29.772Z,50.00
2024-05-09T04:32:29.963Z,50.00
2024-05-09T04:33:30.038Z,50.00
2024-05-09T04:34:29.835Z,50.00
2024-05-09T04:35:29.865Z,50.00
2024-05-09T04:36:29.786Z,51.73
2024-05-09T04:37:29.793Z,50.00
2024-05-09T04:38:29.808Z,52.69
2024-05-09T04:39:29.789Z,52.19
2024-05-09T04:40:34.192Z,52.07
2024-05-09T04:41:30.857Z,52.20
2024-05-09T04:42:29.800Z,52.21
2024-05-09T04:43:29.807Z,50.40
2024-05-09T04:44:29.857Z,50.08
2024-05-09T04:45:29.813Z,48.48
2024-05-09T04:46:29.803Z,51.79
2024-05-09T04:47:29.949Z,51.95
2024-05-09T04:48:30.007Z,50.71
2024-05-09T04:49:29.926Z,52.23
2024-05-09T04:50:36.326Z,53.67
2024-05-09T04:51:30.826Z,53.76
2024-05-09T04:52:29.823Z,53.95
2024-05-09T04:53:29.850Z,53.31
2024-05-09T04:54:35.982Z,51.78
2024-05-09T04:55:30.878Z,53.74
2024-05-09T04:56:29.890Z,53.67
2024-05-09T04:57:29.843Z,53.13
2024-05-09T04:58:29.844Z,53.84
2024-05-09T04:59:29.887Z,53.25
2024-05-09T05:00:35.668Z,51.02
2024-05-09T05:01:30.951Z,53.75
2024-05-09T05:02:29.957Z,54.01
2024-05-09T05:03:30.000Z,53.71
2024-05-09T05:04:29.906Z,55.28
2024-05-09T05:05:29.905Z,53.78
2024-05-09T05:06:29.857Z,52.67
2024-05-09T05:07:29.863Z,53.78
2024-05-09T05:08:29.886Z,54.65
2024-05-09T05:09:29.866Z,54.47
2024-05-09T05:10:35.692Z,54.32
2024-05-09T05:11:30.955Z,53.96
2024-05-09T05:12:29.953Z,54.62
2024-05-09T05:13:29.874Z,54.30
2024-05-09T05:14:29.937Z,54.58
2024-05-09T05:15:29.881Z,49.75
2024-05-09T05:16:29.885Z,51.05
2024-05-09T05:17:30.033Z,54.50
2024-05-09T05:18:29.970Z,54.27
2024-05-09T05:19:30.013Z,51.68
2024-05-09T05:20:33.635Z,52.55
2024-05-09T05:21:30.032Z,50.05
2024-05-09T05:22:29.947Z,52.84
2024-05-09T05:23:29.993Z,49.84
2024-05-09T05:24:29.947Z,53.87
2024-05-09T05:25:29.950Z,48.97
2024-05-09T05:26:29.993Z,50.86
2024-05-09T05:27:29.958Z,52.32
2024-05-09T05:28:29.953Z,55.51
2024-05-09T05:29:30.014Z,54.90
2024-05-09T05:30:34.490Z,53.33
2024-05-09T05:31:30.989Z,53.50
2024-05-09T05:32:30.076Z,50.72
2024-05-09T05:33:30.150Z,54.35
2024-05-09T05:34:29.968Z,54.37
2024-05-09T05:35:30.174Z,54.69
2024-05-09T05:36:29.976Z,54.29
2024-05-09T05:37:29.975Z,56.48
2024-05-09T05:38:30.077Z,54.40
2024-05-09T05:39:30.012Z,56.83
2024-05-09T05:40:36.246Z,56.57
2024-05-09T05:41:31.170Z,56.69
2024-05-09T05:42:30.110Z,54.89
2024-05-09T05:43:30.125Z,57.43
2024-05-09T05:44:30.174Z,58.74
2024-05-09T05:45:30.117Z,59.59
2024-05-09T05:46:30.115Z,60.25
2024-05-09T05:47:30.221Z,58.26
2024-05-09T05:48:30.165Z,55.64
2024-05-09T05:49:30.229Z,57.86
2024-05-09T05:50:35.815Z,57.90
2024-05-09T05:51:31.217Z,58.04
2024-05-09T05:52:30.225Z,57.96
2024-05-09T05:53:30.325Z,57.33
2024-05-09T05:54:30.233Z,58.92
2024-05-09T05:55:30.269Z,61.74
2024-05-09T05:56:30.386Z,59.54
2024-05-09T05:57:30.222Z,60.57
2024-05-09T05:58:30.226Z,62.04
2024-05-09T05:59:30.268Z,59.56
2024-05-09T06:00:37.741Z,58.75
2024-05-09T06:01:31.383Z,58.84
2024-05-09T06:02:30.418Z,58.93
2024-05-09T06:03:30.444Z,59.08
2024-05-09T06:04:30.325Z,55.51
2024-05-09T06:05:30.334Z,57.98
2024-05-09T06:06:30.331Z,55.99
2024-05-09T06:07:30.328Z,53.71
2024-05-09T06:08:30.697Z,54.77
2024-05-09T06:09:30.333Z,50.90
2024-05-09T06:10:37.691Z,54.28
2024-05-09T06:11:31.625Z,54.40
2024-05-09T06:12:30.383Z,54.31
2024-05-09T06:13:30.368Z,53.84
2024-05-09T06:14:30.442Z,55.25
2024-05-09T06:15:30.359Z,51.37
2024-05-09T06:16:30.343Z,54.49
2024-05-09T06:17:30.490Z,49.08
2024-05-09T06:18:30.540Z,50.00
2024-05-09T06:19:30.724Z,58.07
2024-05-09T06:20:35.926Z,55.77
2024-05-09T06:21:31.365Z,55.85
2024-05-09T06:22:30.395Z,56.05
2024-05-09T06:23:30.376Z,56.55
2024-05-09T06:24:30.363Z,46.49
2024-05-09T06:25:30.370Z,51.80
2024-05-09T06:26:30.410Z,50.72
2024-05-09T06:27:30.365Z,56.21
2024-05-09T06:28:30.365Z,51.58
2024-05-09T06:29:30.457Z,55.42
2024-05-09T06:30:37.809Z,52.89
2024-05-09T06:31:31.384Z,53.04
2024-05-09T06:32:30.492Z,52.95
2024-05-09T06:33:30.549Z,53.41
2024-05-09T06:34:30.512Z,52.73
2024-05-09T06:35:30.570Z,52.23
2024-05-09T06:36:30.382Z,52.27
2024-05-09T06:37:30.398Z,56.50
2024-05-09T06:38:30.451Z,57.80
2024-05-09T06:39:30.384Z,54.80
2024-05-09T06:40:37.072Z,50.95
2024-05-09T06:41:31.451Z,51.13
2024-05-09T06:42:30.390Z,49.47
2024-05-09T06:43:30.395Z,51.07
2024-05-09T06:44:30.472Z,48.53
2024-05-09T06:45:30.396Z,48.02
2024-05-09T06:46:30.396Z,55.77
2024-05-09T06:47:30.546Z,50.13
2024-05-09T06:48:30.506Z,50.02
2024-05-09T06:49:30.527Z,55.44
2024-05-09T06:50:35.823Z,54.39
2024-05-09T06:51:31.423Z,54.55
2024-05-09T06:52:30.436Z,54.94
2024-05-09T06:53:30.470Z,55.83
2024-05-09T06:54:30.407Z,56.47
2024-05-09T06:55:30.411Z,53.76
2024-05-09T06:56:30.511Z,55.33
2024-05-09T06:57:30.429Z,51.26
2024-05-09T06:58:30.425Z,50.00
2024-05-09T06:59:30.490Z,52.96
2024-05-09T07:00:38.005Z,52.17
2024-05-09T07:01:31.602Z,52.23
2024-05-09T07:02:30.488Z,49.78
2024-05-09T07:03:30.582Z,52.03
2024-05-09T07:04:30.504Z,47.09
2024-05-09T07:05:30.459Z,48.57
2024-05-09T07:06:30.433Z,51.19
2024-05-09T07:07:30.444Z,50.00
2024-05-09T07:08:30.461Z,55.60
2024-05-09T07:09:30.516Z,55.25
2024-05-09T07:10:34.887Z,53.65
2024-05-09T07:11:31.638Z,53.78
2024-05-09T07:12:30.530Z,54.56
2024-05-09T07:13:30.461Z,56.19
2024-05-09T07:14:30.530Z,59.97
2024-05-09T07:15:30.466Z,63.31
2024-05-09T07:16:30.463Z,66.15
2024-05-09T07:17:30.651Z,69.06
2024-05-09T07:18:30.673Z,70.71
2024-05-09T07:19:30.607Z,72.43
2024-05-09T07:20:34.514Z,71.85
2024-05-09T07:21:30.503Z,71.91
2024-05-09T07:22:30.482Z,72.04
2024-05-09T07:23:30.608Z,71.99
2024-05-09T07:24:30.477Z,71.44
2024-05-09T07:25:30.736Z,74.66
2024-05-09T07:26:30.522Z,74.97
2024-05-09T07:27:30.487Z,74.03
2024-05-09T07:28:30.484Z,72.61
2024-05-09T07:29:30.569Z,75.13
2024-05-09T07:30:33.673Z,72.40
2024-05-09T07:31:30.491Z,72.52
2024-05-09T07:32:30.578Z,72.36
2024-05-09T07:33:30.542Z,73.79
2024-05-09T07:34:30.650Z,72.59
2024-05-09T07:35:31.054Z,75.13
2024-05-09T07:36:30.495Z,74.69
2024-05-09T07:37:30.499Z,73.16
2024-05-09T07:38:30.570Z,77.57
2024-05-09T07:39:30.501Z,75.38
2024-05-09T07:40:35.691Z,80.33
2024-05-09T07:41:31.629Z,78.50
2024-05-09T07:42:30.526Z,78.82
2024-05-09T07:43:30.513Z,77.88
2024-05-09T07:44:30.705Z,81.89
2024-05-09T07:45:47.419Z,77.72
2024-05-09T07:47:37.140Z,78.15
2024-05-09T07:48:57.387Z,77.46
2024-05-09T07:50:01.289Z,80.38
2024-05-09T07:53:08.333Z,74.18
2024-05-09T07:53:40.446Z,69.93
2024-05-09T07:54:31.662Z,76.64
2024-05-09T07:55:30.818Z,68.67
2024-05-09T07:56:31.309Z,62.36
2024-05-09T07:57:30.599Z,64.12
2024-05-09T07:58:30.573Z,59.29
2024-05-09T07:59:33.296Z,53.85
2024-05-09T08:00:31.996Z,53.89
2024-05-09T08:01:30.625Z,47.19
2024-05-09T08:02:30.784Z,48.44
2024-05-09T08:03:30.638Z,48.19
2024-05-09T08:04:30.618Z,44.66
2024-05-09T08:05:30.643Z,52.85
2024-05-09T08:06:30.616Z,55.90
2024-05-09T08:07:30.579Z,53.82
2024-05-09T08:08:30.585Z,50.21
2024-05-09T08:09:30.608Z,52.12
2024-05-09T08:10:30.662Z,55.76
2024-05-09T08:11:30.663Z,58.74
2024-05-09T08:12:30.624Z,61.11
2024-05-09T08:13:30.606Z,62.63
2024-05-09T08:14:30.593Z,59.10
2024-05-09T08:15:30.669Z,59.76
2024-05-09T08:16:30.759Z,60.94
2024-05-09T08:17:30.840Z,61.86
2024-05-09T08:18:31.119Z,61.94
2024-05-09T08:19:30.899Z,61.30
2024-05-09T08:20:35.013Z,60.21
2024-05-09T08:21:31.071Z,60.36
2024-05-09T08:22:30.929Z,60.54
2024-05-09T08:23:30.944Z,61.18
2024-05-09T08:24:31.031Z,61.10
2024-05-09T08:25:30.950Z,62.38
2024-05-09T08:26:30.935Z,61.28
2024-05-09T08:27:30.994Z,61.24
2024-05-09T08:28:30.955Z,61.28
2024-05-09T08:29:30.947Z,60.48
2024-05-09T08:30:36.529Z,60.59
2024-05-09T08:31:32.020Z,60.69
2024-05-09T08:32:31.030Z,60.62
2024-05-09T08:33:31.248Z,60.95
2024-05-09T08:34:31.049Z,61.46
2024-05-09T08:35:30.968Z,60.70
2024-05-09T08:36:30.977Z,58.94
2024-05-09T08:38:30.966Z,59.15
2024-05-09T08:39:31.012Z,58.23
2024-05-09T08:40:35.230Z,58.74
2024-05-09T08:41:31.990Z,58.78
2024-05-09T08:42:31.010Z,58.97
2024-05-09T08:43:31.032Z,59.17
2024-05-09T08:44:31.501Z,59.96
2024-05-09T08:45:31.119Z,60.81
2024-05-09T08:46:31.047Z,60.46
2024-05-09T08:47:31.034Z,61.00
2024-05-09T08:48:31.152Z,62.39
2024-05-09T08:49:31.052Z,58.86
2024-05-09T08:50:37.896Z,62.10
2024-05-09T08:51:32.029Z,62.21
2024-05-09T08:52:30.989Z,62.25
2024-05-09T08:53:30.992Z,63.22
2024-05-09T08:54:31.020Z,64.43
2024-05-09T08:55:31.004Z,64.28
2024-05-09T08:56:30.990Z,65.88
2024-05-09T08:57:31.025Z,68.05
2024-05-09T08:58:30.999Z,67.67
2024-05-09T08:59:30.991Z,66.13
2024-05-09T09:00:36.597Z,69.31
2024-05-09T09:01:32.174Z,69.40
2024-05-09T09:02:31.171Z,69.33
2024-05-09T09:03:31.329Z,70.02
2024-05-09T09:04:31.214Z,71.65
2024-05-09T09:05:31.252Z,70.63
2024-05-09T09:06:31.086Z,72.32
2024-05-09T09:07:31.109Z,72.32
2024-05-09T09:08:31.069Z,72.31
2024-05-09T09:09:31.110Z,72.20
2024-05-09T09:10:32.711Z,75.57
2024-05-09T09:11:31.228Z,74.88
2024-05-09T09:12:31.370Z,76.63
2024-05-09T09:13:31.436Z,75.63
2024-05-09T09:14:31.470Z,75.73
2024-05-09T09:15:31.566Z,74.55
2024-05-09T09:16:31.598Z,75.70
2024-05-09T09:17:31.747Z,74.96
2024-05-09T09:18:31.979Z,76.67
2024-05-09T09:19:31.830Z,79.25
2024-05-09T09:20:36.438Z,75.96
2024-05-09T09:21:32.981Z,75.86
2024-05-09T09:22:31.838Z,76.17
2024-05-09T09:23:31.925Z,72.09
2024-05-09T09:24:31.888Z,70.01
2024-05-09T09:25:32.144Z,64.69
2024-05-09T09:26:31.848Z,58.89
2024-05-09T09:27:31.897Z,55.46
2024-05-09T09:28:31.846Z,51.75
2024-05-09T09:29:31.917Z,50.63
2024-05-09T09:30:36.961Z,50.25
2024-05-09T09:31:33.180Z,50.31
2024-05-09T09:32:32.111Z,48.57
2024-05-09T09:33:32.798Z,43.73
2024-05-09T09:34:32.309Z,41.79
2024-05-09T09:35:31.989Z,44.98
2024-05-09T09:36:32.056Z,51.83
2024-05-09T09:37:31.992Z,55.45
2024-05-09T09:38:32.001Z,58.17
2024-05-09T09:39:32.088Z,61.96
2024-05-09T09:40:34.033Z,59.83
2024-05-09T09:41:32.098Z,60.00
2024-05-09T09:42:32.137Z,60.46
2024-05-09T09:43:32.130Z,61.65
2024-05-09T09:44:32.951Z,63.08
2024-05-09T09:45:32.134Z,69.03
2024-05-09T09:46:32.216Z,67.82
2024-05-09T09:47:32.352Z,65.00
2024-05-09T09:48:32.440Z,70.61
2024-05-09T09:49:32.190Z,68.16
2024-05-09T09:50:34.776Z,67.25
2024-05-09T09:51:32.142Z,67.28
2024-05-09T09:52:32.153Z,67.43
2024-05-09T09:53:32.145Z,68.08
2024-05-09T09:54:32.173Z,68.68
2024-05-09T09:55:32.121Z,67.51
2024-05-09T09:56:32.131Z,69.42
2024-05-09T09:57:32.174Z,68.09
2024-05-09T09:58:32.169Z,69.68
2024-05-09T09:59:32.141Z,72.03
2024-05-09T10:00:33.459Z,71.60
2024-05-09T10:01:32.264Z,70.04
2024-05-09T10:02:32.348Z,70.38
2024-05-09T10:03:32.363Z,70.97
2024-05-09T10:04:32.275Z,72.38
2024-05-09T10:05:32.336Z,70.02
2024-05-09T10:06:32.202Z,69.46
2024-05-09T10:07:32.140Z,66.48
2024-05-09T10:08:32.153Z,66.20
2024-05-09T10:09:32.254Z,61.44
2024-05-09T10:10:33.295Z,58.89
2024-05-09T10:11:36.995Z,60.08
2024-05-09T10:12:33.426Z,57.08
2024-05-09T10:13:32.387Z,53.75
2024-05-09T10:14:32.337Z,54.40
2024-05-09T10:15:32.369Z,53.04
2024-05-09T10:16:32.409Z,46.74
2024-05-09T10:17:32.436Z,48.87
2024-05-09T10:18:34.201Z,52.73
2024-05-09T10:19:32.446Z,48.31
2024-05-09T10:20:32.931Z,50.00
2024-05-09T10:21:32.444Z,50.00
2024-05-09T10:22:32.430Z,51.11
2024-05-09T10:23:32.713Z,51.01
2024-05-09T10:24:32.556Z,53.61
2024-05-09T10:25:32.629Z,52.31
2024-05-09T10:26:32.588Z,53.71
2024-05-09T10:27:32.656Z,51.63
2024-05-09T10:28:32.741Z,53.84
2024-05-09T10:29:32.679Z,53.14
2024-05-09T10:30:36.179Z,51.70
2024-05-09T10:31:32.779Z,51.74
2024-05-09T10:32:32.860Z,51.73
2024-05-09T10:33:32.822Z,49.29
2024-05-09T10:34:32.864Z,51.20
2024-05-09T10:35:32.742Z,46.96
2024-05-09T10:36:32.796Z,50.00
2024-05-09T10:37:32.797Z,50.00
2024-05-09T10:38:32.758Z,50.00
2024-05-09T10:39:32.869Z,51.71
2024-05-09T10:40:32.841Z,50.25
2024-05-09T10:41:32.760Z,51.57
2024-05-09T10:42:32.794Z,52.19
2024-05-09T10:43:32.770Z,50.00
2024-05-09T10:44:32.752Z,50.00
2024-05-09T10:45:32.807Z,50.49
2024-05-09T10:46:32.816Z,52.08
2024-05-09T10:47:32.825Z,52.34
2024-05-09T10:48:32.835Z,50.76
2024-05-09T10:49:32.849Z,51.36
2024-05-09T10:50:34.484Z,51.46
2024-05-09T10:51:32.820Z,53.27
2024-05-09T10:52:32.775Z,50.00
2024-05-09T10:53:32.768Z,50.43
2024-05-09T10:54:32.814Z,52.94
2024-05-09T10:55:32.872Z,51.22
2024-05-09T10:56:32.774Z,53.78
2024-05-09T10:57:32.800Z,51.37
2024-05-09T10:58:32.800Z,51.54
2024-05-09T10:59:32.783Z,50.82
2024-05-09T11:00:35.976Z,54.80
2024-05-09T11:01:32.847Z,54.85
2024-05-09T11:02:33.038Z,53.22
2024-05-09T11:03:32.974Z,52.52
2024-05-09T11:04:32.846Z,49.61
2024-05-09T11:05:32.953Z,49.64
2024-05-09T11:06:32.900Z,50.80
2024-05-09T11:07:32.852Z,50.00
2024-05-09T11:08:33.037Z,52.90
2024-05-09T11:09:32.864Z,51.56
2024-05-09T11:10:34.420Z,53.56
2024-05-09T11:11:32.866Z,50.05
2024-05-09T11:12:32.870Z,51.67
2024-05-09T11:13:32.832Z,53.26
2024-05-09T11:14:32.827Z,52.04
2024-05-09T11:15:32.858Z,50.00
2024-05-09T11:16:32.840Z,53.34
2024-05-09T11:17:32.910Z,50.89
2024-05-09T11:18:36.580Z,50.23
2024-05-09T11:19:33.945Z,50.42
2024-05-09T11:20:35.056Z,50.69
2024-05-09T11:21:32.883Z,51.16
2024-05-09T11:22:32.842Z,52.01
2024-05-09T11:23:33.099Z,55.44
2024-05-09T11:24:32.902Z,50.21
2024-05-09T11:25:32.827Z,50.89
2024-05-09T11:26:32.829Z,51.93
2024-05-09T11:27:32.888Z,52.22
2024-05-09T11:28:32.828Z,51.98
2024-05-09T11:29:32.834Z,53.69
2024-05-09T11:30:32.875Z,52.65
2024-05-09T11:31:33.201Z,53.98
2024-05-09T11:32:33.331Z,52.52
2024-05-09T11:33:32.958Z,50.89
2024-05-09T11:34:33.014Z,52.81
2024-05-09T11:35:32.838Z,51.39
2024-05-09T11:36:32.967Z,50.00
2024-05-09T11:37:35.415Z,50.25
2024-05-09T11:38:32.852Z,50.43
2024-05-09T11:39:32.933Z,51.34
2024-05-09T11:40:34.577Z,51.25
2024-05-09T11:41:32.846Z,52.52
2024-05-09T11:42:32.902Z,54.57
2024-05-09T11:43:33.037Z,54.04
2024-05-09T11:44:32.861Z,55.29
2024-05-09T11:45:32.913Z,51.69
2024-05-09T11:46:32.866Z,54.39
2024-05-09T11:47:32.953Z,52.53
2024-05-09T11:48:33.022Z,53.86
2024-05-09T11:49:33.120Z,52.30
2024-05-09T11:50:35.760Z,52.17
2024-05-09T11:51:32.921Z,59.67
2024-05-09T11:52:32.879Z,56.46
2024-05-09T11:53:32.909Z,51.72
2024-05-09T11:54:32.940Z,52.55
2024-05-09T11:55:32.928Z,53.62
2024-05-09T11:56:32.882Z,50.92
2024-05-09T11:57:32.917Z,52.81
2024-05-09T11:58:32.888Z,49.96
2024-05-09T11:59:32.884Z,53.88
2024-05-09T12:00:37.004Z,52.94
2024-05-09T12:01:34.018Z,52.99
2024-05-09T12:02:32.987Z,52.91
2024-05-09T12:03:33.068Z,49.14
2024-05-09T12:04:33.025Z,53.44
2024-05-09T12:05:33.632Z,50.03
2024-05-09T12:06:32.939Z,52.26
2024-05-09T12:07:32.904Z,53.36
2024-05-09T12:08:32.914Z,52.02
2024-05-09T12:09:32.960Z,53.23
2024-05-09T12:10:35.498Z,54.42
2024-05-09T12:11:32.934Z,54.44
2024-05-09T12:12:35.361Z,54.87
2024-05-09T12:13:33.036Z,54.43
2024-05-09T12:14:32.913Z,54.49
2024-05-09T12:15:33.070Z,52.22
2024-05-09T12:16:33.147Z,55.51
2024-05-09T12:17:33.070Z,51.88
2024-05-09T12:18:33.028Z,54.07
2024-05-09T12:19:33.012Z,51.67
2024-05-09T12:20:37.292Z,57.30
2024-05-09T12:21:33.977Z,53.15
2024-05-09T12:22:32.943Z,52.02
2024-05-09T12:23:32.946Z,56.51
2024-05-09T12:24:33.010Z,53.90
2024-05-09T12:25:32.976Z,54.88
2024-05-09T12:26:32.937Z,57.61
2024-05-09T12:27:33.007Z,55.08
2024-05-09T12:28:33.012Z,53.05
2024-05-09T12:29:35.002Z,54.42
2024-05-09T12:30:37.836Z,54.47
2024-05-09T12:31:34.007Z,54.63
2024-05-09T12:32:32.993Z,55.24
2024-05-09T12:33:33.081Z,55.86
2024-05-09T12:34:33.010Z,56.51
2024-05-09T12:35:33.215Z,61.01
2024-05-09T12:36:33.019Z,58.48
2024-05-09T12:37:32.968Z,60.73
2024-05-09T12:38:32.956Z,61.59
2024-05-09T12:39:33.022Z,62.07
2024-05-09T12:40:36.595Z,60.19
2024-05-09T12:41:33.966Z,60.37
2024-05-09T12:42:33.899Z,60.93
2024-05-09T12:43:33.006Z,62.64
2024-05-09T12:44:32.969Z,66.18
2024-05-09T12:45:33.074Z,67.31
2024-05-09T12:46:33.142Z,67.34
2024-05-09T12:47:33.086Z,69.07
2024-05-09T12:48:33.138Z,69.26
2024-05-09T12:49:33.131Z,68.62
2024-05-09T12:50:34.466Z,69.86
2024-05-09T12:51:33.048Z,68.68
2024-05-09T12:52:33.007Z,71.11
2024-05-09T12:53:32.986Z,67.24
2024-05-09T12:54:32.994Z,69.93
2024-05-09T12:55:41.066Z,67.04
2024-05-09T12:56:33.987Z,67.16